createdAt,value
2019-02-15T00:00:30.797Z,994.51
2019-02-15T00:02:34.989Z,994.49
2019-02-15T00:03:35.197Z,994.46
2019-02-15T00:05:39.433Z,994.47
2019-02-15T00:06:39.584Z,994.43
2019-02-15T00:08:44.797Z,994.41
2019-02-15T00:09:44.990Z,994.38
2019-02-15T00:11:49.177Z,994.38
2019-02-15T00:12:49.382Z,994.37
2019-02-15T00:14:54.553Z,994.36
2019-02-15T00:15:54.768Z,994.33
2019-02-15T00:17:47.872Z,994.32
2019-02-15T00:18:48.104Z,994.32
2019-02-15T00:20:52.243Z,994.31
2019-02-15T00:21:52.518Z,994.28
2019-02-15T00:23:56.635Z,994.33
2019-02-15T00:24:56.865Z,994.31
2019-02-15T00:27:02.037Z,994.30
2019-02-15T00:28:02.265Z,994.28
2019-02-15T00:30:06.409Z,994.32
2019-02-15T00:31:06.643Z,994.24
2019-02-15T00:33:10.809Z,994.32
2019-02-15T00:34:11.050Z,994.32
2019-02-15T00:36:15.191Z,994.36
2019-02-15T00:37:15.496Z,994.34
2019-02-15T00:39:19.591Z,994.32
2019-02-15T00:40:19.811Z,994.33
2019-02-15T00:42:24.000Z,994.35
2019-02-15T00:43:24.212Z,994.30
2019-02-15T00:45:29.368Z,994.31
2019-02-15T00:46:29.604Z,994.26
2019-02-15T00:48:34.790Z,994.27
2019-02-15T00:49:35.044Z,994.26
2019-02-15T00:51:39.177Z,994.25
2019-02-15T00:52:39.401Z,994.28
2019-02-15T00:54:43.574Z,994.27
2019-02-15T00:55:43.806Z,994.25
2019-02-15T00:57:36.898Z,994.23
2019-02-15T00:58:37.105Z,994.21
2019-02-15T01:00:42.286Z,994.18
2019-02-15T01:01:42.521Z,994.16
2019-02-15T01:03:46.714Z,994.15
2019-02-15T01:04:46.966Z,994.21
2019-02-15T01:06:51.102Z,994.16
2019-02-15T01:07:51.332Z,994.21
2019-02-15T01:09:55.512Z,994.17
2019-02-15T01:10:55.797Z,994.20
2019-02-15T01:12:59.916Z,994.20
2019-02-15T01:14:00.138Z,994.16
2019-02-15T01:16:05.316Z,994.11
2019-02-15T01:17:05.542Z,994.12
2019-02-15T01:19:09.721Z,994.12
2019-02-15T01:20:09.960Z,994.09
2019-02-15T01:22:14.198Z,994.13
2019-02-15T01:23:14.337Z,994.12
2019-02-15T01:25:18.523Z,994.14
2019-02-15T01:26:18.746Z,994.14
2019-02-15T01:28:23.590Z,994.13
2019-02-15T01:29:23.598Z,994.10
2019-02-15T01:31:27.775Z,994.11
2019-02-15T01:32:28.007Z,994.10
2019-02-15T01:34:32.173Z,994.06
2019-02-15T01:35:32.388Z,994.06
2019-02-15T01:37:26.476Z,994.11
2019-02-15T01:38:26.712Z,994.08
2019-02-15T01:40:31.892Z,994.12
2019-02-15T01:41:32.162Z,994.10
2019-02-15T01:43:40.131Z,994.08
2019-02-15T01:44:36.530Z,994.13
2019-02-15T01:46:40.683Z,994.08
2019-02-15T01:47:40.924Z,994.09
2019-02-15T01:49:45.071Z,994.10
2019-02-15T01:50:45.313Z,994.09
2019-02-15T01:52:49.465Z,994.07
2019-02-15T01:53:49.702Z,994.06
2019-02-15T01:55:54.885Z,994.02
2019-02-15T01:56:55.116Z,994.01
2019-02-15T01:58:59.294Z,994.03
2019-02-15T01:59:59.526Z,993.99
2019-02-15T02:02:03.677Z,994.02
2019-02-15T02:03:03.950Z,993.99
2019-02-15T02:05:08.081Z,993.98
2019-02-15T02:06:08.334Z,993.95
2019-02-15T02:08:12.470Z,993.98
2019-02-15T02:09:12.693Z,993.96
2019-02-15T02:11:16.859Z,993.93
2019-02-15T02:12:17.113Z,993.93
2019-02-15T02:14:21.268Z,993.87
2019-02-15T02:15:21.503Z,993.89
2019-02-15T02:17:14.575Z,993.85
2019-02-15T02:18:14.821Z,993.86
2019-02-15T02:20:18.972Z,993.89
2019-02-15T02:21:19.209Z,993.84
2019-02-15T02:23:23.359Z,993.85
2019-02-15T02:24:23.609Z,993.82
2019-02-15T02:26:27.755Z,993.80
2019-02-15T02:27:28.001Z,993.79
2019-02-15T02:29:32.135Z,993.83
2019-02-15T02:30:32.385Z,993.86
2019-02-15T02:32:36.542Z,993.81
2019-02-15T02:33:36.764Z,993.81
2019-02-15T02:35:40.935Z,993.80
2019-02-15T02:36:41.176Z,993.83
2019-02-15T02:38:45.359Z,993.81
2019-02-15T02:39:45.552Z,993.82
2019-02-15T02:41:49.729Z,993.77
2019-02-15T02:42:49.952Z,993.79
2019-02-15T02:44:54.124Z,993.77
2019-02-15T02:45:54.384Z,993.77
2019-02-15T02:47:47.423Z,993.78
2019-02-15T02:48:47.658Z,993.78
2019-02-15T02:50:51.822Z,993.78
2019-02-15T02:51:52.064Z,993.78
2019-02-15T02:53:56.207Z,993.74
2019-02-15T02:54:56.441Z,993.77
2019-02-15T02:57:00.615Z,993.76
2019-02-15T02:58:00.840Z,993.75
2019-02-15T03:00:05.026Z,993.76
2019-02-15T03:01:05.241Z,993.76
2019-02-15T03:03:09.413Z,993.75
2019-02-15T03:04:09.710Z,993.75
2019-02-15T03:06:13.826Z,993.74
2019-02-15T03:07:14.051Z,993.78
2019-02-15T03:09:18.195Z,993.73
2019-02-15T03:10:18.430Z,993.74
2019-02-15T03:12:22.600Z,993.77
2019-02-15T03:13:22.820Z,993.77
2019-02-15T03:15:28.002Z,993.71
2019-02-15T03:16:28.246Z,993.74
2019-02-15T03:18:32.390Z,993.71
2019-02-15T03:19:32.645Z,993.69
2019-02-15T03:21:36.786Z,993.71
2019-02-15T03:22:37.030Z,993.68
2019-02-15T03:24:41.177Z,993.72
2019-02-15T03:25:41.401Z,993.71
2019-02-15T03:27:34.489Z,993.68
2019-02-15T03:28:34.717Z,993.72
2019-02-15T03:30:39.891Z,993.67
2019-02-15T03:31:40.144Z,993.68
2019-02-15T03:33:44.277Z,993.62
2019-02-15T03:34:44.511Z,993.63
2019-02-15T03:36:48.701Z,993.63
2019-02-15T03:37:48.896Z,993.58
2019-02-15T03:39:53.040Z,993.62
2019-02-15T03:40:53.268Z,993.63
2019-02-15T03:42:57.446Z,993.63
2019-02-15T03:43:57.676Z,993.66
2019-02-15T03:46:01.847Z,993.61
2019-02-15T03:47:02.069Z,993.59
2019-02-15T03:49:06.212Z,993.63
2019-02-15T03:50:06.446Z,993.64
2019-02-15T03:52:10.618Z,993.65
2019-02-15T03:53:10.864Z,993.66
2019-02-15T03:55:14.984Z,993.64
2019-02-15T03:56:15.208Z,993.67
2019-02-15T03:58:19.379Z,993.69
2019-02-15T03:59:19.611Z,993.69
2019-02-15T04:01:23.781Z,993.68
2019-02-15T04:02:24.013Z,993.70
2019-02-15T04:04:28.164Z,993.68
2019-02-15T04:05:28.381Z,993.69
2019-02-15T04:07:21.487Z,993.70
2019-02-15T04:08:21.698Z,993.66
2019-02-15T04:10:25.849Z,993.68
2019-02-15T04:11:26.117Z,993.70
2019-02-15T04:13:30.242Z,993.67
2019-02-15T04:14:32.963Z,993.73
2019-02-15T04:16:34.650Z,993.69
2019-02-15T04:17:34.881Z,993.70
2019-02-15T04:19:39.038Z,993.73
2019-02-15T04:20:39.244Z,993.78
2019-02-15T04:22:43.463Z,993.75
2019-02-15T04:23:43.663Z,993.73
2019-02-15T04:25:47.801Z,993.73
2019-02-15T04:26:48.039Z,993.70
2019-02-15T04:28:52.199Z,993.71
2019-02-15T04:29:52.453Z,993.66
2019-02-15T04:31:56.623Z,993.68
2019-02-15T04:32:56.816Z,993.68
2019-02-15T04:35:00.956Z,993.70
2019-02-15T04:36:01.188Z,993.69
2019-02-15T04:37:54.286Z,993.65
2019-02-15T04:38:54.523Z,993.68
2019-02-15T04:40:58.671Z,993.66
2019-02-15T04:41:58.892Z,993.64
2019-02-15T04:44:03.058Z,993.60
2019-02-15T04:45:03.288Z,993.63
2019-02-15T04:47:07.463Z,993.63
2019-02-15T04:48:07.735Z,993.66
2019-02-15T04:50:11.829Z,993.70
2019-02-15T04:51:12.054Z,993.67
2019-02-15T04:53:16.248Z,993.70
2019-02-15T04:54:16.446Z,993.67
2019-02-15T04:56:20.598Z,993.69
2019-02-15T04:57:20.817Z,993.66
2019-02-15T04:59:24.980Z,993.62
2019-02-15T05:00:25.215Z,993.60
2019-02-15T05:02:29.398Z,993.57
2019-02-15T05:03:29.648Z,993.58
2019-02-15T05:05:33.755Z,993.56
2019-02-15T05:06:33.982Z,993.56
2019-02-15T05:08:38.643Z,993.56
2019-02-15T05:09:38.902Z,993.59
2019-02-15T05:11:43.043Z,993.57
2019-02-15T05:12:43.272Z,993.59
2019-02-15T05:14:53.150Z,993.57
2019-02-15T05:15:48.718Z,993.55
2019-02-15T05:17:42.795Z,993.60
2019-02-15T05:18:43.015Z,993.59
2019-02-15T05:20:47.164Z,993.61
2019-02-15T05:21:47.389Z,993.62
2019-02-15T05:23:51.583Z,993.65
2019-02-15T05:24:51.782Z,993.61
2019-02-15T05:26:55.938Z,993.58
2019-02-15T05:27:56.153Z,993.61
2019-02-15T05:30:00.402Z,993.60
2019-02-15T05:31:00.561Z,993.58
2019-02-15T05:33:04.743Z,993.61
2019-02-15T05:34:04.990Z,993.55
2019-02-15T05:36:09.100Z,993.53
2019-02-15T05:37:09.335Z,993.55
2019-02-15T05:39:13.485Z,993.57
2019-02-15T05:40:13.724Z,993.55
2019-02-15T05:42:17.861Z,993.59
2019-02-15T05:43:18.096Z,993.57
2019-02-15T05:45:22.254Z,993.56
2019-02-15T05:46:22.486Z,993.56
2019-02-15T05:48:26.650Z,993.59
2019-02-15T05:49:26.880Z,993.57
2019-02-15T05:51:31.029Z,993.57
2019-02-15T05:52:31.263Z,993.59
2019-02-15T05:54:35.426Z,993.61
2019-02-15T05:55:35.658Z,993.61
2019-02-15T05:57:28.772Z,993.61
2019-02-15T05:58:28.966Z,993.61
2019-02-15T06:00:36.988Z,993.60
2019-02-15T06:01:33.357Z,993.61
2019-02-15T06:03:37.501Z,993.61
2019-02-15T06:04:37.728Z,993.61
2019-02-15T06:06:41.890Z,993.61
2019-02-15T06:07:42.117Z,993.63
2019-02-15T06:09:46.292Z,993.64
2019-02-15T06:10:46.537Z,993.62
2019-02-15T06:12:50.671Z,993.64
2019-02-15T06:13:50.908Z,993.63
2019-02-15T06:15:55.082Z,993.62
2019-02-15T06:16:55.318Z,993.60
2019-02-15T06:18:59.502Z,993.58
2019-02-15T06:19:59.739Z,993.56
2019-02-15T06:22:03.892Z,993.58
2019-02-15T06:23:04.122Z,993.58
2019-02-15T06:25:08.291Z,993.55
2019-02-15T06:26:08.524Z,993.58
2019-02-15T06:28:12.673Z,993.63
2019-02-15T06:29:12.903Z,993.65
2019-02-15T06:31:17.576Z,993.66
2019-02-15T06:32:17.814Z,993.68
2019-02-15T06:34:21.987Z,993.70
2019-02-15T06:35:22.242Z,993.68
2019-02-15T06:37:15.791Z,993.66
2019-02-15T06:38:16.022Z,993.69
2019-02-15T06:40:20.190Z,993.69
2019-02-15T06:41:20.431Z,993.67
2019-02-15T06:43:24.575Z,993.70
2019-02-15T06:44:24.811Z,993.74
2019-02-15T06:46:28.979Z,993.79
2019-02-15T06:47:29.212Z,993.83
2019-02-15T06:49:33.351Z,993.86
2019-02-15T06:50:33.588Z,993.90
2019-02-15T06:52:37.750Z,994.02
2019-02-15T06:53:37.986Z,994.05
2019-02-15T06:55:42.147Z,994.06
2019-02-15T06:56:42.379Z,994.11
2019-02-15T06:58:46.520Z,994.11
2019-02-15T06:59:46.752Z,994.18
2019-02-15T07:01:50.919Z,994.26
2019-02-15T07:02:51.169Z,994.26
2019-02-15T07:04:55.299Z,994.28
2019-02-15T07:05:55.528Z,994.29
2019-02-15T07:07:48.621Z,994.32
2019-02-15T07:08:48.855Z,994.32
2019-02-15T07:10:53.023Z,994.40
2019-02-15T07:11:53.297Z,994.45
2019-02-15T07:13:57.410Z,994.47
2019-02-15T07:14:57.642Z,994.50
2019-02-15T07:17:01.813Z,994.56
2019-02-15T07:18:02.048Z,994.61
2019-02-15T07:20:06.193Z,994.68
2019-02-15T07:21:06.433Z,994.68
2019-02-15T07:23:10.599Z,994.83
2019-02-15T07:24:10.835Z,994.96
2019-02-15T07:26:15.009Z,995.32
2019-02-15T07:27:15.241Z,995.68
2019-02-15T07:29:19.394Z,996.48
2019-02-15T07:30:19.631Z,996.77
2019-02-15T07:32:23.802Z,999.36
2019-02-15T07:33:24.047Z,1000.01
2019-02-15T07:35:28.189Z,997.45
2019-02-15T07:36:28.425Z,996.96
2019-02-15T07:38:32.597Z,996.46
2019-02-15T07:39:32.841Z,996.27
2019-02-15T07:41:37.018Z,996.12
2019-02-15T07:42:37.257Z,996.38
2019-02-15T07:44:41.414Z,996.10
2019-02-15T07:45:43.101Z,996.03
2019-02-15T07:47:34.763Z,996.01
2019-02-15T07:48:35.001Z,995.94
2019-02-15T07:50:39.155Z,995.92
2019-02-15T07:51:39.454Z,995.98
2019-02-15T07:53:43.580Z,995.88
2019-02-15T07:54:43.866Z,995.92
2019-02-15T07:56:48.049Z,996.00
2019-02-15T07:57:48.235Z,995.89
2019-02-15T07:59:52.400Z,995.87
2019-02-15T08:00:52.643Z,996.12
2019-02-15T08:02:56.824Z,996.03
2019-02-15T08:03:57.072Z,996.13
2019-02-15T08:06:01.225Z,996.33
2019-02-15T08:07:01.466Z,996.90
2019-02-15T08:09:05.731Z,996.59
2019-02-15T08:10:05.971Z,996.08
2019-02-15T08:12:10.138Z,995.75
2019-02-15T08:13:10.381Z,995.65
2019-02-15T08:15:14.543Z,995.59
2019-02-15T08:16:14.788Z,995.63
2019-02-15T08:18:18.969Z,996.39
2019-02-15T08:19:21.202Z,997.82
2019-02-15T08:21:23.375Z,998.90
2019-02-15T08:22:23.624Z,999.32
2019-02-15T08:24:27.803Z,999.61
2019-02-15T08:25:28.048Z,999.59
2019-02-15T08:27:21.161Z,999.56
2019-02-15T08:28:21.406Z,999.29
2019-02-15T08:30:25.625Z,999.19
2019-02-15T08:31:25.818Z,999.11
2019-02-15T08:33:30.008Z,999.05
2019-02-15T08:34:30.254Z,999.01
2019-02-15T08:36:34.418Z,998.86
2019-02-15T08:37:34.662Z,998.71
2019-02-15T08:39:38.853Z,998.56
2019-02-15T08:40:39.095Z,998.48
2019-02-15T08:42:43.283Z,998.31
2019-02-15T08:43:43.532Z,998.27
2019-02-15T08:45:47.700Z,998.01
2019-02-15T08:46:48.085Z,997.94
2019-02-15T08:48:52.134Z,997.75
2019-02-15T08:49:52.380Z,997.65
2019-02-15T08:51:56.562Z,997.54
2019-02-15T08:52:56.798Z,997.50
2019-02-15T08:55:00.993Z,997.36
2019-02-15T08:56:01.241Z,997.30
2019-02-15T08:57:54.365Z,997.14
2019-02-15T08:58:54.614Z,997.14
2019-02-15T09:00:58.788Z,996.98
2019-02-15T09:01:59.036Z,996.95
2019-02-15T09:04:03.237Z,996.86
2019-02-15T09:05:03.483Z,996.85
2019-02-15T09:07:07.655Z,996.86
2019-02-15T09:08:07.905Z,996.76
2019-02-15T09:10:12.113Z,996.72
2019-02-15T09:11:12.351Z,996.66
2019-02-15T09:13:16.560Z,996.72
2019-02-15T09:14:16.812Z,996.69
2019-02-15T09:16:20.990Z,996.56
2019-02-15T09:17:21.241Z,996.51
2019-02-15T09:19:25.441Z,996.46
2019-02-15T09:20:25.692Z,996.44
2019-02-15T09:22:29.874Z,996.33
2019-02-15T09:23:30.124Z,996.16
2019-02-15T09:25:34.324Z,995.23
2019-02-15T09:26:34.574Z,995.20
2019-02-15T09:28:38.774Z,995.19
2019-02-15T09:29:39.026Z,995.17
2019-02-15T09:31:43.206Z,995.13
2019-02-15T09:32:43.523Z,995.14
2019-02-15T09:34:47.658Z,995.09
2019-02-15T09:35:48.091Z,995.12
2019-02-15T09:37:41.021Z,995.07
2019-02-15T09:38:41.276Z,995.11
2019-02-15T09:40:45.477Z,995.07
2019-02-15T09:41:45.730Z,995.06
2019-02-15T09:43:49.927Z,995.06
2019-02-15T09:44:50.179Z,995.06
2019-02-15T09:46:54.357Z,995.08
2019-02-15T09:47:54.607Z,995.10
2019-02-15T09:49:58.809Z,995.10
2019-02-15T09:50:59.060Z,995.15
2019-02-15T09:53:03.238Z,995.68
2019-02-15T09:54:03.494Z,995.73
2019-02-15T09:56:07.696Z,995.81
2019-02-15T09:57:07.949Z,995.82
2019-02-15T09:59:12.152Z,995.76
2019-02-15T10:00:12.404Z,995.73
2019-02-15T10:02:16.584Z,995.71
2019-02-15T10:03:16.835Z,995.65
2019-02-15T10:05:21.039Z,995.68
2019-02-15T10:06:21.295Z,995.67
2019-02-15T10:08:25.475Z,995.65
2019-02-15T10:09:25.727Z,995.68
2019-02-15T10:11:29.931Z,995.59
2019-02-15T10:12:30.185Z,995.62
2019-02-15T10:14:34.387Z,995.63
2019-02-15T10:15:34.640Z,995.63
2019-02-15T10:17:27.763Z,995.60
2019-02-15T10:18:28.004Z,995.60
2019-02-15T10:20:32.210Z,995.57
2019-02-15T10:21:32.464Z,995.59
2019-02-15T10:23:36.665Z,995.48
2019-02-15T10:24:36.905Z,995.51
2019-02-15T10:26:41.124Z,995.48
2019-02-15T10:27:41.380Z,995.46
2019-02-15T10:29:45.586Z,995.41
2019-02-15T10:30:45.838Z,995.43
2019-02-15T10:32:50.023Z,995.39
2019-02-15T10:33:50.278Z,995.40
2019-02-15T10:35:54.483Z,995.42
2019-02-15T10:36:54.741Z,995.41
2019-02-15T10:38:58.926Z,995.41
2019-02-15T10:39:59.177Z,995.40
2019-02-15T10:42:03.385Z,995.31
2019-02-15T10:43:03.643Z,995.30
2019-02-15T10:45:07.848Z,995.24
2019-02-15T10:46:08.112Z,995.21
2019-02-15T10:48:12.298Z,995.20
2019-02-15T10:49:12.545Z,995.20
2019-02-15T10:51:16.753Z,995.18
2019-02-15T10:52:17.009Z,995.17
2019-02-15T10:54:21.199Z,995.18
2019-02-15T10:55:21.456Z,995.18
2019-02-15T10:57:14.588Z,995.12
2019-02-15T10:58:14.845Z,995.14
2019-02-15T11:00:19.033Z,995.11
2019-02-15T11:01:19.287Z,995.16
2019-02-15T11:03:23.497Z,995.10
2019-02-15T11:04:23.754Z,995.04
2019-02-15T11:06:27.967Z,995.04
2019-02-15T11:07:28.220Z,995.04
2019-02-15T11:09:32.407Z,995.02
2019-02-15T11:10:32.664Z,994.98
2019-02-15T11:12:36.874Z,994.95
2019-02-15T11:13:37.130Z,994.96
2019-02-15T11:15:41.344Z,994.92
2019-02-15T11:16:47.371Z,994.88
2019-02-15T11:18:45.793Z,994.83
2019-02-15T11:19:46.048Z,994.79
2019-02-15T11:21:50.260Z,994.79
2019-02-15T11:22:50.563Z,994.76
2019-02-15T11:24:54.705Z,994.72
2019-02-15T11:25:54.962Z,994.73
2019-02-15T11:27:48.307Z,994.69
2019-02-15T11:28:48.330Z,994.63
2019-02-15T11:30:42.703Z,994.62
2019-02-15T11:31:43.016Z,994.60
2019-02-15T11:33:47.326Z,994.63
2019-02-15T11:34:47.617Z,994.60
2019-02-15T11:36:51.808Z,994.51
2019-02-15T11:37:52.123Z,994.48
2019-02-15T11:39:56.335Z,994.45
2019-02-15T11:40:56.595Z,994.45
2019-02-15T11:43:00.950Z,994.47
2019-02-15T11:44:01.210Z,994.45
2019-02-15T11:46:05.410Z,994.44
2019-02-15T11:47:05.660Z,994.44
2019-02-15T11:49:09.868Z,994.37
2019-02-15T11:50:10.126Z,994.28
2019-02-15T11:52:14.315Z,994.09
2019-02-15T11:53:14.574Z,994.08
2019-02-15T11:55:18.796Z,994.05
2019-02-15T11:56:19.038Z,994.03
2019-02-15T11:58:23.246Z,994.01
2019-02-15T11:59:23.542Z,994.01
2019-02-15T12:01:27.735Z,994.04
2019-02-15T12:02:28.041Z,994.04
2019-02-15T12:04:32.286Z,994.05
2019-02-15T12:05:32.542Z,994.02
2019-02-15T12:07:25.661Z,994.01
2019-02-15T12:08:25.982Z,994.01
2019-02-15T12:10:30.217Z,994.06
2019-02-15T12:11:30.545Z,994.06
2019-02-15T12:13:34.772Z,994.04
2019-02-15T12:14:35.068Z,993.99
2019-02-15T12:16:39.267Z,993.96
2019-02-15T12:17:39.523Z,993.96
2019-02-15T12:19:43.865Z,993.91
2019-02-15T12:20:44.117Z,993.88
2019-02-15T12:22:48.337Z,993.85
2019-02-15T12:23:48.651Z,993.89
2019-02-15T12:25:52.885Z,993.90
2019-02-15T12:26:53.187Z,993.90
2019-02-15T12:28:57.468Z,993.84
2019-02-15T12:29:57.764Z,993.85
2019-02-15T12:32:01.958Z,993.87
2019-02-15T12:33:02.207Z,993.80
2019-02-15T12:35:06.425Z,993.77
2019-02-15T12:36:06.683Z,993.76
2019-02-15T12:38:10.960Z,993.71
2019-02-15T12:39:13.751Z,993.62
2019-02-15T12:41:15.439Z,993.62
2019-02-15T12:42:15.760Z,993.57
2019-02-15T12:44:20.037Z,993.55
2019-02-15T12:45:20.294Z,993.58
2019-02-15T12:47:15.296Z,993.59
2019-02-15T12:48:13.697Z,993.56
2019-02-15T12:50:17.971Z,993.49
2019-02-15T12:51:18.286Z,993.49
2019-02-15T12:53:22.502Z,993.47
2019-02-15T12:54:22.792Z,993.43
2019-02-15T12:56:27.116Z,993.42
2019-02-15T12:57:27.424Z,993.40
2019-02-15T12:59:31.627Z,993.38
2019-02-15T13:00:33.242Z,993.34
2019-02-15T13:02:36.116Z,993.30
2019-02-15T13:03:36.395Z,993.27
2019-02-15T13:05:40.610Z,993.23
2019-02-15T13:06:42.932Z,993.23
2019-02-15T13:08:45.078Z,993.17
2019-02-15T13:09:45.334Z,993.12
2019-02-15T13:11:49.602Z,993.09
2019-02-15T13:12:49.855Z,993.07
2019-02-15T13:14:54.091Z,993.10
2019-02-15T13:15:54.387Z,993.09
2019-02-15T13:17:47.525Z,993.04
2019-02-15T13:18:47.776Z,993.04
2019-02-15T13:20:51.989Z,992.99
2019-02-15T13:21:52.243Z,992.95
2019-02-15T13:23:56.429Z,992.97
2019-02-15T13:24:56.685Z,992.96
2019-02-15T13:27:00.892Z,992.93
2019-02-15T13:28:01.206Z,992.95
2019-02-15T13:30:05.334Z,992.95
2019-02-15T13:31:05.586Z,992.92
2019-02-15T13:33:09.796Z,992.87
2019-02-15T13:34:10.091Z,992.91
2019-02-15T13:36:14.235Z,992.90
2019-02-15T13:37:14.493Z,992.88
2019-02-15T13:39:18.700Z,992.80
2019-02-15T13:40:18.958Z,992.78
2019-02-15T13:42:23.163Z,992.72
2019-02-15T13:43:23.417Z,992.73
2019-02-15T13:45:29.450Z,992.68
2019-02-15T13:46:27.856Z,992.70
2019-02-15T13:48:32.068Z,992.67
2019-02-15T13:49:32.319Z,992.66
2019-02-15T13:51:36.504Z,992.63
2019-02-15T13:52:36.755Z,992.64
2019-02-15T13:54:40.958Z,992.63
2019-02-15T13:55:41.210Z,992.60
2019-02-15T13:57:34.353Z,992.55
2019-02-15T13:58:34.601Z,992.54
2019-02-15T14:00:38.784Z,992.52
2019-02-15T14:01:39.038Z,992.53
2019-02-15T14:03:43.244Z,992.55
2019-02-15T14:04:43.502Z,992.53
2019-02-15T14:06:47.682Z,992.48
2019-02-15T14:07:48.071Z,992.52
2019-02-15T14:09:52.142Z,992.46
2019-02-15T14:10:52.396Z,992.51
2019-02-15T14:12:56.606Z,992.42
2019-02-15T14:13:56.859Z,992.41
2019-02-15T14:16:01.046Z,992.38
2019-02-15T14:17:01.301Z,992.41
2019-02-15T14:19:05.507Z,992.39
2019-02-15T14:20:05.763Z,992.40
2019-02-15T14:22:09.940Z,992.40
2019-02-15T14:23:10.195Z,992.39
2019-02-15T14:25:14.402Z,992.36
2019-02-15T14:26:14.653Z,992.33
2019-02-15T14:28:18.860Z,992.33
2019-02-15T14:29:19.112Z,992.30
2019-02-15T14:31:23.296Z,992.25
2019-02-15T14:32:23.545Z,992.22
2019-02-15T14:34:27.749Z,992.20
2019-02-15T14:35:27.996Z,992.22
2019-02-15T14:37:21.108Z,992.22
2019-02-15T14:38:21.361Z,992.19
2019-02-15T14:40:25.584Z,992.17
2019-02-15T14:41:25.810Z,992.17
2019-02-15T14:43:29.993Z,992.15
2019-02-15T14:44:30.243Z,992.14
2019-02-15T14:46:34.440Z,992.12
2019-02-15T14:47:34.689Z,992.13
2019-02-15T14:49:38.890Z,992.06
2019-02-15T14:50:39.146Z,992.10
2019-02-15T14:52:43.324Z,992.08
2019-02-15T14:53:43.575Z,992.02
2019-02-15T14:55:47.776Z,992.04
2019-02-15T14:56:48.029Z,991.99
2019-02-15T14:58:52.209Z,991.95
2019-02-15T14:59:52.457Z,991.99
2019-02-15T15:01:56.658Z,991.95
2019-02-15T15:02:56.909Z,991.92
2019-02-15T15:05:01.121Z,991.95
2019-02-15T15:06:01.372Z,991.95
2019-02-15T15:07:54.480Z,991.94
2019-02-15T15:08:54.731Z,991.90
2019-02-15T15:10:58.930Z,991.84
2019-02-15T15:11:59.182Z,991.85
2019-02-15T15:14:04.381Z,991.83
2019-02-15T15:15:04.634Z,991.78
2019-02-15T15:17:08.837Z,991.80
2019-02-15T15:18:13.272Z,991.78
2019-02-15T15:20:13.293Z,991.75
2019-02-15T15:21:13.545Z,991.72
2019-02-15T15:23:17.719Z,991.68
2019-02-15T15:24:17.970Z,991.68
2019-02-15T15:26:22.173Z,991.64
2019-02-15T15:27:22.424Z,991.65
2019-02-15T15:29:26.598Z,991.65
2019-02-15T15:30:26.850Z,991.66
2019-02-15T15:32:31.053Z,991.62
2019-02-15T15:33:31.307Z,991.68
2019-02-15T15:35:35.500Z,991.65
2019-02-15T15:36:35.754Z,991.63
2019-02-15T15:38:39.942Z,991.64
2019-02-15T15:39:40.194Z,991.60
2019-02-15T15:41:44.395Z,991.57
2019-02-15T15:42:44.645Z,991.57
2019-02-15T15:44:48.821Z,991.55
2019-02-15T15:45:49.071Z,991.56
2019-02-15T15:47:42.210Z,991.53
2019-02-15T15:48:42.451Z,991.54
2019-02-15T15:50:46.629Z,991.46
2019-02-15T15:51:47.082Z,991.47
2019-02-15T15:53:51.075Z,991.45
2019-02-15T15:54:51.324Z,991.45
2019-02-15T15:56:55.526Z,991.42
2019-02-15T15:57:55.772Z,991.41
2019-02-15T15:59:59.945Z,991.42
2019-02-15T16:01:00.194Z,991.41
2019-02-15T16:03:04.390Z,991.35
2019-02-15T16:04:04.640Z,991.36
2019-02-15T16:06:08.814Z,991.36
2019-02-15T16:07:09.069Z,991.31
2019-02-15T16:09:13.253Z,991.30
2019-02-15T16:10:13.549Z,991.24
2019-02-15T16:12:17.696Z,991.26
2019-02-15T16:13:17.945Z,991.19
2019-02-15T16:15:22.118Z,991.16
2019-02-15T16:16:22.369Z,991.14
2019-02-15T16:18:34.207Z,991.13
2019-02-15T16:19:26.809Z,991.16
2019-02-15T16:21:30.981Z,991.14
2019-02-15T16:22:31.230Z,991.14
2019-02-15T16:24:35.421Z,991.06
2019-02-15T16:25:35.680Z,991.12
2019-02-15T16:27:28.796Z,991.03
2019-02-15T16:28:29.041Z,991.00
2019-02-15T16:30:33.214Z,990.99
2019-02-15T16:31:33.439Z,990.97
2019-02-15T16:33:37.626Z,990.94
2019-02-15T16:34:37.873Z,990.96
2019-02-15T16:36:42.038Z,990.96
2019-02-15T16:37:42.286Z,990.91
2019-02-15T16:39:46.471Z,990.92
2019-02-15T16:40:46.716Z,990.91
2019-02-15T16:42:50.884Z,990.89
2019-02-15T16:43:51.122Z,990.91
2019-02-15T16:45:55.304Z,990.86
2019-02-15T16:46:55.546Z,990.88
2019-02-15T16:48:59.726Z,990.86
2019-02-15T16:49:59.971Z,990.86
2019-02-15T16:52:04.137Z,990.87
2019-02-15T16:53:04.374Z,990.85
2019-02-15T16:55:12.981Z,990.84
2019-02-15T16:56:08.798Z,990.85
2019-02-15T16:58:12.955Z,990.88
2019-02-15T16:59:13.197Z,990.92
2019-02-15T17:01:17.374Z,990.89
2019-02-15T17:02:17.615Z,990.91
2019-02-15T17:04:21.799Z,990.91
2019-02-15T17:05:22.036Z,990.89
2019-02-15T17:07:15.120Z,990.93
2019-02-15T17:08:15.360Z,990.93
2019-02-15T17:10:19.544Z,990.90
2019-02-15T17:11:19.784Z,990.88
2019-02-15T17:13:23.935Z,990.87
2019-02-15T17:14:24.177Z,990.89
2019-02-15T17:16:28.356Z,990.91
2019-02-15T17:17:28.590Z,990.88
2019-02-15T17:19:32.762Z,990.87
2019-02-15T17:20:33.004Z,990.86
2019-02-15T17:22:37.168Z,990.89
2019-02-15T17:23:37.397Z,990.89
2019-02-15T17:25:41.566Z,990.92
2019-02-15T17:26:41.806Z,990.89
2019-02-15T17:28:46.970Z,990.88
2019-02-15T17:29:47.205Z,990.89
2019-02-15T17:31:51.381Z,990.86
2019-02-15T17:32:51.620Z,990.84
2019-02-15T17:34:55.806Z,990.79
2019-02-15T17:35:56.045Z,990.81
2019-02-15T17:37:49.185Z,990.80
2019-02-15T17:38:49.418Z,990.80
2019-02-15T17:40:53.692Z,990.81
2019-02-15T17:41:53.973Z,990.82
2019-02-15T17:43:58.135Z,990.80
2019-02-15T17:44:58.407Z,990.78
2019-02-15T17:47:02.652Z,990.79
2019-02-15T17:48:02.921Z,990.79
2019-02-15T17:50:07.095Z,990.81
2019-02-15T17:51:07.334Z,990.76
2019-02-15T17:53:11.520Z,990.77
2019-02-15T17:54:11.808Z,990.74
2019-02-15T17:56:15.972Z,990.71
2019-02-15T17:57:16.210Z,990.72
2019-02-15T17:59:20.358Z,990.69
2019-02-15T18:00:20.604Z,990.67
2019-02-15T18:02:24.772Z,990.66
2019-02-15T18:03:25.013Z,990.64
2019-02-15T18:05:29.215Z,990.54
2019-02-15T18:06:29.452Z,990.55
2019-02-15T18:08:33.607Z,990.57
2019-02-15T18:09:33.842Z,990.59
2019-02-15T18:11:38.016Z,990.57
2019-02-15T18:12:38.257Z,990.57
2019-02-15T18:14:42.409Z,990.56
2019-02-15T18:15:42.639Z,990.61
2019-02-15T18:17:35.745Z,990.58
2019-02-15T18:18:35.972Z,990.58
2019-02-15T18:20:40.131Z,990.56
2019-02-15T18:21:40.363Z,990.53
2019-02-15T18:23:44.534Z,990.52
2019-02-15T18:24:44.785Z,990.49
2019-02-15T18:26:48.946Z,990.48
2019-02-15T18:27:49.186Z,990.49
2019-02-15T18:29:53.364Z,990.45
2019-02-15T18:30:53.570Z,990.49
2019-02-15T18:32:58.751Z,990.53
2019-02-15T18:33:58.976Z,990.49
2019-02-15T18:36:04.175Z,990.53
2019-02-15T18:37:04.406Z,990.47
2019-02-15T18:39:08.571Z,990.50
2019-02-15T18:40:08.781Z,990.46
2019-02-15T18:42:12.953Z,990.45
2019-02-15T18:43:13.193Z,990.46
2019-02-15T18:45:17.353Z,990.45
2019-02-15T18:46:17.588Z,990.41
2019-02-15T18:48:22.766Z,990.47
2019-02-15T18:49:23.025Z,990.40
2019-02-15T18:51:27.184Z,990.41
2019-02-15T18:52:27.405Z,990.38
2019-02-15T18:54:31.555Z,990.40
2019-02-15T18:55:31.789Z,990.38
2019-02-15T18:57:24.889Z,990.36
2019-02-15T18:58:25.127Z,990.37
2019-02-15T19:00:29.275Z,990.39
2019-02-15T19:01:29.516Z,990.36
2019-02-15T19:03:33.685Z,990.32
2019-02-15T19:04:33.949Z,990.31